Lake Bonaparte, New York
Current Conditions -  °F | °C
As of 8:58 AM on Sunday 23 Nov 2014 (Local Time) from KGTB Reporting Station
Overcast Overcast  
Wind Chill: 34°   Ceiling: 2100
Heat Index: 39°   Visibility: 10mi
Dew Point: 39°   Wind: 7mph
Humidity: 100%   Direction: 210°SSW
Pressure: 30.04"   Gusts: NA
Location:  44.1447°N, 75.2952°W
Report Text: KGTB 231358Z AUTO 21006KT 10SM OVC021 04/04 A3004 RMK AO2 SLP179 T00400040
Loading
Personal Weather Stations






























Interactive Weather Map New forecast layout! Learn more

10-Day Weather Forecast

Advertisements
Track Severe Weather on mobile